Little's Farm

CA-0442 · 安大略, 加拿大

2022年10月6日

时间 代码 天气 温度 能见度 天花板 METAR/SPECI
14:00
V
22 °C 15 mi 17.000 ft 240° 240° 11 kt METAR CYYZ 061800Z 24011KT 15SM SCT095 BKN170 22/05 A2991 RMK AC4AC3 SLP131 DENSITY ALT 1600FT
13:00
V
23 °C 15 mi 17.000 ft 220° 220° 11 kt METAR CYYZ 061700Z 22011KT 190V250 15SM SCT100 BKN170 23/08 A2993 RMK AC3AC4 SLP137 DENSITY ALT 1600FT
12:00
V
22 °C 15 mi 16.000 ft 220° 220° 8 kt METAR CYYZ 061600Z 22008KT 170V240 15SM SCT100 BKN160 22/09 A2994 RMK AC4AC3 SLP139 DENSITY ALT 1500FT
11:00
V
20 °C 15 mi 25.000 ft 210° 210° 3 kt METAR CYYZ 061500Z 21003KT 160V270 15SM FEW110 BKN250 20/10 A2995 RMK AC2CS5 SLP144 DENSITY ALT 1300FT
10:00
V
18 °C 15 mi 10.000 ft 240° 240° 6 kt METAR CYYZ 061400Z 24006KT 15SM VCSH BKN100 BKN160 18/10 A2996 RMK AC5AC2 SH W-N SLP146 DENSITY ALT 1100FT
09:20
V
16 °C 15 mi 11.000 ft 240° 240° 3 kt METAR CYYZ 061320Z 24003KT 15SM BKN110 BKN140 16/13 A2996 RMK AC5AC2 SLP149 DENSITY ALT 800FT
09:00
V
16 °C 15 mi 11.000 ft 260° 260° 6 kt METAR CYYZ 061300Z 26006KT 15SM -RA BKN110 BKN140 16/12 A2996 RMK AC7AC1 AC TR SLP149 DENSITY ALT 800FT
08:37
V
15 °C 15 mi 11.000 ft 280° 280° 4 kt METAR CYYZ 061237Z 28004KT 15SM -RA BKN110 15/13 A2996 RMK AC7 SLP148 DENSITY ALT 700FT
08:23
V
15 °C 15 mi 11.000 ft 260° 260° 6 kt METAR CYYZ 061223Z 26006KT 15SM BKN110 15/13 A2996 RMK AC7 SLP149 DENSITY ALT 700FT
08:00
V
15 °C 15 mi 11.000 ft 240° 240° 4 kt METAR CYYZ 061200Z 24004KT 15SM -RA BKN110 15/12 A2996 RMK AC7 SLP149 DENSITY ALT 700FT
07:24
V
14 °C 15 mi 10.000 ft 260° 260° 5 kt METAR CYYZ 061124Z CCA 26005KT 15SM -RA BKN100 BKN160 14/13 A2996 RMK AC7AC1 AC TR SLP149 DENSITY ALT 600FT
07:00
V
14 °C 15 mi 10.000 ft 260° 260° 4 kt METAR CYYZ 061100Z 26004KT 15SM BKN100 BKN160 14/12 A2996 RMK AC7AC1 AC TR SLP148 DENSITY ALT 600FT
06:00
V
15 °C 15 mi 11.000 ft 250° 250° 2 kt METAR CYYZ 061000Z 25002KT 15SM -RA BKN110 BKN140 15/11 A2996 RMK AC5AC2 SLP149 DENSITY ALT 700FT
05:37
V
14 °C 15 mi 14.000 ft 270° 270° 3 kt METAR CYYZ 060937Z 27003KT 15SM -RA SCT100 BKN140 14/12 A2996 RMK AC3AC4 SLP149
05:00
V
14 °C 15 mi 16.000 ft 250° 250° 3 kt METAR CYYZ 060900Z 25003KT 15SM SCT120 BKN160 14/10 A2997 RMK AC3AC3 SLP150
04:00
V
15 °C 15 mi 17.000 ft 240° 240° 5 kt METAR CYYZ 060800Z 24005KT 15SM FEW130 BKN170 15/10 A2997 RMK AC1AC5 SLP150 DENSITY ALT 700FT
03:00
V
13 °C 15 mi 16.000 ft 260° 260° 5 kt METAR CYYZ 060700Z 26005KT 15SM SCT120 BKN160 13/11 A2998 RMK AC3AC3 SLP153
02:00
V
14 °C 15 mi 15.000 ft 260° 260° 3 kt METAR CYYZ 060600Z 26003KT 15SM BKN150 BKN250 14/10 A2998 RMK AC5CI1 SLP154
01:00
V
15 °C 15 mi - 340° 340° 3 kt METAR CYYZ 060500Z 34003KT 15SM SCT150 SCT250 15/10 A2998 RMK AC3CI1 SLP153 DENSITY ALT 700FT
00:00
V
16 °C 15 mi - 320° 320° 6 kt METAR CYYZ 060400Z 32006KT 15SM FEW150 SCT240 16/10 A2999 RMK AC2CI2 SLP159 DENSITY ALT 700FT

2022年10月5日

时间 代码 天气 温度 能见度 天花板 METAR/SPECI
23:00
V
17 °C 15 mi - Var 000° 0 kt METAR CYYZ 060300Z 00000KT 15SM SCT240 17/09 A3000 RMK CI3 SLP160 DENSITY ALT 800FT
22:00
V
17 °C 15 mi - 280° 280° 3 kt METAR CYYZ 060200Z 28003KT 15SM SCT250 17/08 A3000 RMK CI3 SLP160 DENSITY ALT 900FT
21:00
V
17 °C 15 mi - Var Var 2 kt METAR CYYZ 060100Z VRB02KT 15SM SCT250 17/09 A3000 RMK CI3 SLP162 DENSITY ALT 900FT
20:00
V
18 °C 15 mi - 130° 130° 2 kt METAR CYYZ 060000Z 13002KT 15SM SCT250 18/08 A3000 RMK CI3 SLP163 DENSITY ALT 1000FT
19:00
V
18 °C 15 mi - 140° 140° 3 kt METAR CYYZ 052300Z 14003KT 15SM FEW150 SCT250 18/08 A3000 RMK AC1CI3 AC TR SLP162 DENSITY ALT 1000FT
18:00
V
20 °C 15 mi - 150° 150° 7 kt METAR CYYZ 052200Z 15007KT 15SM FEW250 20/06 A2999 RMK CI1 CONTRAILS SLP160 DENSITY ALT 1200FT
17:00
V
21 °C 15 mi - 140° 140° 8 kt METAR CYYZ 052100Z 14008KT 15SM FEW250 21/03 A3000 RMK CI1 CI TR SLP160 DENSITY ALT 1400FT
16:00
V
21 °C 15 mi - 140° 140° 7 kt METAR CYYZ 052000Z 14007KT 15SM FEW250 21/07 A3000 RMK CI1 CI TR SLP163 DENSITY ALT 1400FT
15:00
V
22 °C 15 mi - 130° 130° 7 kt METAR CYYZ 051900Z 13007KT 15SM FEW250 22/09 A3002 RMK CI1 CI TR SLP167 DENSITY ALT 1400FT
14:00
V
20 °C 15 mi - 140° 140° 7 kt METAR CYYZ 051800Z 14007KT 15SM FEW250 20/09 A3003 RMK CI1 CI TR SLP174 DENSITY ALT 1200FT
13:00
V
21 °C 15 mi - 310° 310° 4 kt METAR CYYZ 051700Z 31004KT 260V020 15SM FEW250 21/05 A3005 RMK CI1 CI TR SLP179 DENSITY ALT 1300FT
12:00
V
20 °C 15 mi - Var Var 3 kt METAR CYYZ 051600Z VRB03KT 15SM FEW250 20/03 A3007 RMK CI1 CI TR SLP185 DENSITY ALT 1100FT
11:00
V
18 °C 15 mi - 360° 360° 3 kt METAR CYYZ 051500Z 36003KT 300V060 15SM FEW250 18/07 A3008 RMK CI1 CI TR SLP189 DENSITY ALT 900FT
10:00
V
15 °C 15 mi - 360° 360° 5 kt METAR CYYZ 051400Z 36005KT 330V030 15SM FEW250 15/06 A3009 RMK CI1 CI TR SLP192 DENSITY ALT 600FT
09:00
V
13 °C 15 mi - 320° 320° 4 kt METAR CYYZ 051300Z 32004KT 15SM SKC 13/05 A3009 RMK SLP192
08:00
V
9 °C 15 mi - 310° 310° 3 kt METAR CYYZ 051200Z 31003KT 15SM SKC 09/06 A3008 RMK SLP191
07:00
V
9 °C 15 mi - Var 000° 0 kt METAR CYYZ 051100Z 00000KT 15SM SKC 09/06 A3008 RMK SLP189
06:00
V
9 °C 15 mi - 320° 320° 4 kt METAR CYYZ 051000Z 32004KT 15SM FEW180 09/05 A3006 RMK AS1 SLP184
05:00
V
10 °C 15 mi - 310° 310° 4 kt METAR CYYZ 050900Z 31004KT 15SM SKC 10/04 A3006 RMK SLP184
04:00
V
10 °C 15 mi - Var Var 2 kt METAR CYYZ 050800Z VRB02KT 15SM SKC 10/04 A3007 RMK SLP187
03:00
V
10 °C 15 mi - 310° 310° 3 kt METAR CYYZ 050700Z 31003KT 15SM FEW180 10/04 A3008 RMK AS2 SLP191
02:00
V
11 °C 15 mi - 330° 330° 6 kt METAR CYYZ 050600Z 33006KT 290V350 15SM FEW180 11/04 A3009 RMK AS2 SLP194
01:00
V
11 °C 15 mi - 330° 330° 5 kt METAR CYYZ 050500Z 33005KT 15SM FEW180 11/04 A3011 RMK AS1 SLP200
00:00
V
11 °C 15 mi - 320° 320° 8 kt METAR CYYZ 050400Z 32008KT 260V350 15SM SKC 11/04 A3012 RMK SLP203

2022年10月4日

时间 代码 天气 温度 能见度 天花板 METAR/SPECI
23:00
V
11 °C 15 mi - 310° 310° 2 kt METAR CYYZ 050300Z 31002KT 15SM SKC 11/03 A3013 RMK SLP207
22:00
V
12 °C 15 mi - 280° 280° 4 kt METAR CYYZ 050200Z 28004KT 15SM SKC 12/03 A3013 RMK SLP208
21:00
V
13 °C 15 mi - Var 000° 0 kt METAR CYYZ 050100Z 00000KT 15SM FEW180 13/02 A3013 RMK AS1 SLP208
20:00
V
14 °C 15 mi - 160° 160° 3 kt METAR CYYZ 050000Z 16003KT 15SM SCT250 14/02 A3012 RMK CI3 SLP206
19:00
V
15 °C 15 mi - 150° 150° 5 kt METAR CYYZ 042300Z 15005KT 15SM SCT250 15/02 A3011 RMK CI3 SLP202
18:00
V
17 °C 15 mi - 160° 160° 4 kt METAR CYYZ 042200Z 16004KT 15SM SCT260 17/04 A3011 RMK CI4 SLP201 DENSITY ALT 700FT
17:00
V
17 °C 15 mi 24.000 ft 130° 130° 4 kt METAR CYYZ 042100Z 13004KT 15SM BKN240 17/04 A3012 RMK CI5 SLP203 DENSITY ALT 800FT
16:00
V
17 °C 15 mi 24.000 ft Var Var 5 kt METAR CYYZ 042000Z VRB05KT 15SM BKN240 17/04 A3014 RMK CI6 SLP210 DENSITY ALT 700FT
15:00
V
17 °C 15 mi 24.000 ft 320° 320° 6 kt METAR CYYZ 041900Z 32006KT 300V360 15SM BKN240 17/M01 A3015 RMK CI6 SLP213 DENSITY ALT 700FT
14:00
V
18 °C 15 mi 24.000 ft 330° 330° 7 kt METAR CYYZ 041800Z 33007KT 280V040 15SM BKN240 18/02 A3017 RMK CI6 SLP220 DENSITY ALT 800FT
13:00
V
17 °C 15 mi 24.000 ft 010° 010° 5 kt METAR CYYZ 041700Z 01005KT 310V050 15SM BKN240 17/03 A3019 RMK CI6 SLP228 DENSITY ALT 600FT
12:00
V
15 °C 15 mi 24.000 ft 350° 350° 4 kt METAR CYYZ 041600Z 35004KT 320V090 15SM BKN240 15/05 A3021 RMK CI6 SLP233
11:00
V
13 °C 15 mi 26.000 ft 010° 010° 7 kt METAR CYYZ 041500Z 01007KT 15SM FEW180 BKN260 13/06 A3022 RMK AC1CI5 SLP240
较旧的数据

我们和第三方通过cookies跟踪您在我们网站上的上网行为。如果您继续,我们认为您同意我们的cookie政策。 了解更多